Погода METAR - Красноярск

Код аэропорта ICAO:
Кемерово, Абакан, Красноярск, Новосибирск
Код METAR: UNKL 251430Z 30002MPS 9999 SCT036CB M00/M05 Q1026 R29/290050 NOSIG RMK QFE744
TAF UNKL 251354Z 2515/2615 31003MPS 9999 SCT020CB 
     TEMPO 2515/2518 2100 -SHSN BKN013CB 
     FM251800 VRB01MPS 5000 BR SCT013 
     TEMPO 2518/2602 1000 -SN BR 
     BECMG 2602/2603 9999 NSW SCT020CB
       

Погода - Сейчас

Время: 2019-03-25 21:30, местное
Направление ветра: Северо-запад (300°)
Скорость ветра: 2 м/с
Видимость:
Температура: 0°C
Точка росы: -5°C
Атмосферное давление: 1026 гПа

Архив погоды

Время, местное Направление Скорость, м/с Температура, °C Точка росы, °C Давление, гПа
2019-03-25 21:30 СЗ (300°) 2 0 -5 1026
2019-03-25 13:30 ССЗ (340°) 2 1 -6 1020
2019-03-24 19:30 З (270°) 3 3 -2 1013
2019-03-23 02:30 ЗЮЗ (250°) 3 1 -8 1018
2019-03-22 11:30 ЗЮЗ (240°) 5 4 -8 1022
2019-03-20 16:00 ЗЮЗ (260°) 5 -2 -8 1030
2019-03-20 01:00 ЗСЗ (290°) 2 -5 -7 1027
2019-03-19 18:30 ЗЮЗ (260°) 4 -2 -9 1026
2019-03-18 19:00 З (280°) 4 -3 -5 1028
2019-03-18 01:30 ЗСЗ (290°) 4 -7 -11 1020
2019-03-16 18:00 З (270°) 5 8 -3 1009
2019-03-16 15:30 ЗЮЗ (240°) 6, порывы до 12 9 -3 1010
2019-03-16 02:00 Штиль 0 -4 -6 1013
2019-03-15 17:30 Ю (190°) 3 12 -8 1014
2019-03-14 04:00 ЗЮЗ (240°) 7 6 -7 1017
2019-03-11 14:30 Переменный 3 3 -12 1020
2019-03-11 06:00 ЮЗ (230°) 2 -5 -18 1023
2019-03-11 01:00 ЗЮЗ (240°) 4 -2 -15 1024
2019-03-11 00:30 ЗЮЗ (250°) 5 -1 -15 1024
2019-03-11 00:00 ЗЮЗ (250°) 6 -1 -14 1024
2019-03-10 22:30 ЗЮЗ (250°) 5 -1 -14 1024